• Join FlightAware (Why Join?)
  • Login
  • US Flag 
03:34AM EST


 

Airport Tracker/Info


-or-


 

Live Flight TrackerFlight Track Log ✈ ASQ5740 ✈ 21-Apr-2013 ✈ KGSO - KORD

Flight Track Log - Related Links

Times and Time Zones

All times are in EDT time to prevent confusion due to time zone crossing. See the ASQ5740 flight status page for this flight to view local times or setup timezone preferences in your user account.

Time Position Orientation Groundspeed Altitude Reporting Facility
EDT Latitude Longitude Course Direction KTS MPH feet Rate Location/Type
07:28PM 36.2192 -79.8719 302° West 223 257 8,000  Level Atlanta Center
07:29PM 36.2692 -79.9339 315° West 266 306 9,800 1,920 Climbing Atlanta Center
07:30PM 36.2969 -80.0150 293° West 277 319 11,900 1,560 Climbing Atlanta Center
07:31PM 36.3383 -80.1339 293° West 312 359 13,000 1,140 Climbing Atlanta Center
07:32PM 36.3799 -80.4491 304° West  Level FlightAware Approximate
07:32PM 36.3897 -80.2450 300° West 337 388 14,200  Level Atlanta Center
07:33PM 36.4285 -80.5343 310° West  Level FlightAware Approximate
07:33PM 36.4514 -80.3531 305° West 365 420 15,400  Level Atlanta Center
07:34PM 36.4766 -80.6199 302° West  Level FlightAware Approximate
07:34PM 36.5172 -80.4611 307° West 387 445 16,700  Level Atlanta Center
07:35PM 36.5850 -80.5744 307° West 403 464 18,100 960 Climbing Atlanta Center
07:36PM 36.6442 -80.6728 307° West 403 464 18,700 900 Climbing Atlanta Center
07:37PM 36.7097 -80.7864 306° West 408 470 20,000 1,200 Climbing Atlanta Center
07:38PM 36.7731 -80.9031 304° West 408 470 21,200 1,200 Climbing Atlanta Center
07:39PM 36.8386 -81.0172 306° West 403 464 22,400 1,200 Climbing Atlanta Center
07:40PM 36.9106 -81.1442 305° West 403 464 23,600 1,020 Climbing Atlanta Center
07:42PM 37.0206 -81.3236 308° West 411 473 25,200 900 Climbing Indianapolis Center
07:43PM 37.0878 -81.4428 305° West 409 471 26,200 1,020 Climbing Indianapolis Center
07:44PM 37.1656 -81.5792 306° West 412 474 27,300 960 Climbing Indianapolis Center
07:45PM 37.2314 -81.6958 305° West 410 472 28,200 780 Climbing Indianapolis Center
07:46PM 37.2953 -81.8111 305° West 405 466 29,000 780 Climbing Indianapolis Center
07:47PM 37.3606 -81.9269 305° West 405 466 29,800 720 Climbing Indianapolis Center
07:48PM 37.4256 -82.0417 306° West 404 465 30,500 600 Climbing Indianapolis Center
07:49PM 37.4886 -82.1558 305° West 400 460 31,100 540 Climbing Indianapolis Center
07:50PM 37.5639 -82.2897 305° West 401 461 31,700 420 Climbing Indianapolis Center
07:51PM 37.6292 -82.4083 305° West 410 472 32,000 120 Climbing Indianapolis Center
07:52PM 37.6947 -82.5275 305° West 413 475 32,000  Level Indianapolis Center
07:53PM 37.7619 -82.6517 304° West 425 489 32,000  Level Indianapolis Center
07:54PM 37.8308 -82.7767 305° West 433 498 32,000  Level Indianapolis Center
07:55PM 37.9150 -82.8889 314° West 441 507 32,000  Level Indianapolis Center
07:56PM 38.0264 -83.0044 321° Northwest 445 512 32,000  Level Indianapolis Center
07:57PM 38.1208 -83.1039 320° Northwest 442 509 32,000  Level Indianapolis Center
07:58PM 38.2150 -83.2019 321° Northwest 440 506 32,000  Level Indianapolis Center
07:59PM 38.3067 -83.2972 321° Northwest 428 493 32,000  Level Indianapolis Center
08:00PM 38.3981 -83.3936 320° Northwest 427 491 32,000  Level Indianapolis Center
08:01PM 38.4897 -83.4875 321° Northwest 424 488 32,000  Level Indianapolis Center
08:02PM 38.5808 -83.5856 320° Northwest 427 491 32,000  Level Indianapolis Center
08:03PM 38.6725 -83.6808 321° Northwest 426 490 32,000  Level Indianapolis Center
08:04PM 38.7814 -83.7972 320° Northwest 431 496 32,000  Level Indianapolis Center
08:06PM 38.8742 -83.8972 320° Northwest 429 494 32,000  Level Indianapolis Center
08:07PM 38.9672 -83.9953 321° Northwest 429 494 32,000 -480 Level Indianapolis Center
08:08PM 39.0603 -84.0939 321° Northwest 429 494 31,100 -1,080 Descending Indianapolis Center
08:09PM 39.1506 -84.1919 320° Northwest 421 484 29,900 -1,200 Descending Indianapolis Center
08:10PM 39.2411 -84.2883 321° Northwest 418 481 28,700 -960 Descending Indianapolis Center
08:11PM 39.3300 -84.3856 320° Northwest 415 478 28,000 -360 Descending Indianapolis Center
08:12PM 39.4169 -84.4814 320° Northwest 408 470 28,000  Level Indianapolis Center
08:13PM 39.5033 -84.5750 320° Northwest 402 463 28,000  Level Indianapolis Center
08:14PM 39.5914 -84.6711 320° Northwest 407 468 28,000  Level Indianapolis Center
08:15PM 39.6797 -84.7697 319° Northwest 413 475 28,000 -540 Level Indianapolis Center
08:16PM 39.7692 -84.8667 320° Northwest 415 478 27,000 -540 Descending Indianapolis Center
08:17PM 39.8542 -84.9597 320° Northwest 398 458 27,000  Level Indianapolis Center
08:18PM 39.9367 -85.0536 319° Northwest 394 453 27,000  Level Indianapolis Center
08:19PM 40.0261 -85.1533 320° Northwest 413 475 27,000  Level Indianapolis Center
08:20PM 40.1336 -85.2742 319° Northwest 429 494 27,000 -180 Level Indianapolis Center
08:21PM 40.2283 -85.3797 320° Northwest 441 507 26,700 -540 Descending Indianapolis Center
08:22PM 40.3050 -85.4636 320° Northwest 436 502 26,000 -360 Descending Chicago Center
08:23PM 40.4108 -85.5842 319° Northwest 429 494 26,000  Level Chicago Center
08:24PM 40.4978 -85.6792 320° Northwest 420 483 26,000  Level Chicago Center
08:25PM 40.6142 -85.7253 343° North 428 493 26,000 -420 Level Chicago Center
08:26PM 40.7286 -85.7719 343° North 430 495 25,200 -1,020 Descending Chicago Center
08:27PM 40.7972 -85.8917 307° West 415 478 24,000 -1,200 Descending Chicago Center
08:28PM 40.8533 -86.0186 300° West 402 463 22,800 -1,020 Descending Chicago Center
08:29PM 40.9100 -86.1461 300° West 401 461 22,000 -420 Descending Chicago Center
08:30PM 40.9756 -86.2950 300° West 393 452 22,000 -240 Level Chicago Center
08:31PM 41.0303 -86.4219 300° West 395 455 21,600 -780 Descending Chicago Center
08:32PM 41.0867 -86.5492 300° West 400 460 20,400 -1,260 Descending Chicago Center
08:33PM 41.1406 -86.6739 300° West 392 451 19,100 -1,500 Descending Chicago Center
08:34PM 41.1992 -86.8083 300° West 380 437 17,300 -1,860 Descending Chicago Center
08:35PM 41.2486 -86.9253 299° West 368 423 15,300 -1,980 Descending Chicago Center
08:36PM 41.2986 -87.0392 300° West 361 415 13,300 -1,980 Descending Chicago Center
08:37PM 41.3469 -87.1553 299° West 361 415 11,300 -1,560 Descending Chicago Center
08:38PM 41.3833 -87.2167 308° West 348 400 11,100 -240 Descending Chicago TRACON
08:39PM 41.4500 -87.3000 317° Northwest 349 402 11,000 -60 Descending Chicago TRACON
08:40PM 41.5333 -87.3833 323° Northwest 354 407 11,000  Level Chicago TRACON
08:40PM 41.5722 -87.4353 315° West 353 406 11,000  Level Chicago Center
08:41PM 41.6461 -87.5178 320° Northwest 350 403 11,000 -60 Level Chicago Center
08:43PM 41.7183 -87.5983 320° Northwest 344 396 10,900 -480 Descending Chicago Center
08:43PM 41.7500 -87.6333 320° Northwest 296 341 10,400 -1,860 Descending Chicago TRACON
08:44PM 41.8167 -87.7000 323° Northwest 277 319 8,400 -1,680 Descending Chicago TRACON
08:45PM 41.8833 -87.7000 360° North 270 311 7,100 -720 Descending Chicago TRACON
08:46PM 41.9667 -87.7000 360° North 262 302 7,000 -300 Descending Chicago TRACON
08:47PM 42.0333 -87.7000 360° North 256 295 6,600 -1,200 Descending Chicago TRACON
08:48PM 42.1000 -87.7000 360° North 260 299 4,700 -1,980 Descending Chicago TRACON
08:49PM 42.0833 -87.8000 257° West 238 274 2,500 -1,320 Descending Chicago TRACON
08:50PM 42.0500 -87.8333 217° Southwest 169 194 2,100 -660 Descending Chicago TRACON
08:51PM 42.0167 -87.8667 217° Southwest 133 153 1,300 -840 Descending Chicago TRACON
08:53PM 41.9817 -87.9067 257° West  Level Estimated
09:00PM 41.9817 -87.9067 257° West  Level Estimated